createdAt,value
2023-04-18T00:01:09.829Z,58.42
2023-04-18T00:03:38.964Z,57.97
2023-04-18T00:06:06.876Z,58.67
2023-04-18T00:08:34.314Z,57.21
2023-04-18T00:11:01.915Z,58.89
2023-04-18T00:13:29.314Z,59.31
2023-04-18T00:15:56.794Z,59.54
2023-04-18T00:18:26.600Z,59.07
2023-04-18T00:20:54.298Z,62.22
2023-04-18T00:23:22.305Z,60.79
2023-04-18T00:25:49.951Z,59.35
2023-04-18T00:28:17.307Z,59.17
2023-04-18T00:30:45.276Z,59.96
2023-04-18T00:33:12.896Z,60.08
2023-04-18T00:35:40.300Z,60.39
2023-04-18T00:38:08.359Z,60.89
2023-04-18T00:40:36.218Z,62.04
2023-04-18T00:43:03.571Z,61.52
2023-04-18T00:45:31.114Z,62.85
2023-04-18T00:47:58.852Z,60.52
2023-04-18T00:50:26.380Z,62.28
2023-04-18T00:52:53.760Z,60.94
2023-04-18T00:55:21.386Z,61.95
2023-04-18T00:57:48.786Z,62.07
2023-04-18T01:00:16.224Z,59.99
2023-04-18T01:02:44.137Z,60.43
2023-04-18T01:05:11.992Z,61.80
2023-04-18T01:07:42.349Z,60.28
2023-04-18T01:10:10.584Z,59.41
2023-04-18T01:12:37.966Z,58.91
2023-04-18T01:15:05.886Z,56.82
2023-04-18T01:17:35.468Z,57.43
2023-04-18T01:20:04.923Z,58.96
2023-04-18T01:22:33.642Z,57.36
2023-04-18T01:25:01.135Z,57.02
2023-04-18T01:27:28.502Z,56.61
2023-04-18T01:29:56.115Z,57.21
2023-04-18T01:32:23.520Z,58.55
2023-04-18T01:34:50.941Z,59.30
2023-04-18T01:37:18.563Z,58.26
2023-04-18T01:39:45.929Z,57.62
2023-04-18T01:42:13.293Z,59.46
2023-04-18T01:44:40.921Z,62.75
2023-04-18T01:47:08.240Z,59.93
2023-04-18T01:49:35.608Z,62.66
2023-04-18T01:52:03.221Z,61.61
2023-04-18T01:54:30.626Z,60.49
2023-04-18T01:56:57.995Z,60.36
2023-04-18T01:59:25.662Z,61.48
2023-04-18T02:01:53.166Z,60.01
2023-04-18T02:04:20.949Z,60.00
2023-04-18T02:06:48.326Z,60.37
2023-04-18T02:09:16.271Z,60.01
2023-04-18T02:11:43.891Z,59.91
2023-04-18T02:14:11.587Z,61.14
2023-04-18T02:16:39.567Z,63.61
2023-04-18T02:19:07.029Z,63.52
2023-04-18T02:21:34.716Z,62.42
2023-04-18T02:24:02.308Z,61.15
2023-04-18T02:26:29.646Z,60.69
2023-04-18T02:28:58.767Z,61.06
2023-04-18T02:31:26.747Z,60.50
2023-04-18T02:33:54.246Z,59.96
2023-04-18T02:36:22.265Z,59.62
2023-04-18T02:38:49.931Z,60.14
2023-04-18T02:41:20.725Z,59.67
2023-04-18T02:43:48.088Z,62.82
2023-04-18T02:46:15.754Z,60.29
2023-04-18T02:48:43.715Z,60.04
2023-04-18T02:51:12.133Z,61.79
2023-04-18T02:53:39.779Z,60.91
2023-04-18T02:56:07.692Z,59.62
2023-04-18T02:58:36.437Z,58.48
2023-04-18T03:01:05.272Z,58.51
2023-04-18T03:03:38.556Z,58.42
2023-04-18T03:06:08.405Z,57.85
2023-04-18T03:08:36.217Z,58.29
2023-04-18T03:11:03.649Z,57.59
2023-04-18T03:13:31.366Z,57.84
2023-04-18T03:15:59.017Z,60.29
2023-04-18T03:18:27.017Z,60.50
2023-04-18T03:20:55.905Z,61.60
2023-04-18T03:23:23.552Z,60.75
2023-04-18T03:25:50.996Z,60.52
2023-04-18T03:28:19.002Z,62.53
2023-04-18T03:30:46.405Z,63.13
2023-04-18T03:33:14.817Z,61.75
2023-04-18T03:35:42.985Z,60.96
2023-04-18T03:38:10.487Z,61.84
2023-04-18T03:40:39.063Z,61.27
2023-04-18T03:43:07.211Z,60.93
2023-04-18T03:45:35.055Z,60.72
2023-04-18T03:48:02.501Z,59.92
2023-04-18T03:50:31.282Z,59.83
2023-04-18T03:52:59.145Z,61.63
2023-04-18T03:55:26.572Z,63.13
2023-04-18T03:57:54.530Z,62.28
2023-04-18T04:00:22.170Z,61.09
2023-04-18T04:02:50.862Z,62.16
2023-04-18T04:05:18.701Z,61.83
2023-04-18T04:07:46.529Z,61.31
2023-04-18T04:10:14.167Z,63.29
2023-04-18T04:12:41.568Z,61.31
2023-04-18T04:15:09.536Z,64.02
2023-04-18T04:17:37.734Z,63.43
2023-04-18T04:20:06.328Z,62.78
2023-04-18T04:22:34.584Z,63.44
2023-04-18T04:25:02.702Z,62.34
2023-04-18T04:27:33.935Z,64.03
2023-04-18T04:30:02.682Z,63.40
2023-04-18T04:32:30.211Z,63.70
2023-04-18T04:34:57.602Z,62.28
2023-04-18T04:37:25.298Z,63.99
2023-04-18T04:39:54.004Z,64.52
2023-04-18T04:42:25.285Z,63.44
2023-04-18T04:44:54.309Z,62.93
2023-04-18T04:47:22.024Z,64.96
2023-04-18T04:49:49.468Z,64.55
2023-04-18T04:52:17.114Z,64.25
2023-04-18T04:54:45.888Z,62.36
2023-04-18T04:57:13.988Z,60.57
2023-04-18T04:59:41.880Z,60.49
2023-04-18T05:02:09.311Z,61.34
2023-04-18T05:04:36.920Z,62.12
2023-04-18T05:07:04.677Z,61.74
2023-04-18T05:09:31.990Z,62.79
2023-04-18T05:11:59.369Z,62.37
2023-04-18T05:14:27.699Z,62.03
2023-04-18T05:16:55.859Z,62.29
2023-04-18T05:19:23.324Z,63.43
2023-04-18T05:21:51.386Z,62.02
2023-04-18T05:24:18.914Z,63.10
2023-04-18T05:26:46.280Z,61.23
2023-04-18T05:29:13.884Z,63.62
2023-04-18T05:31:41.235Z,61.53
2023-04-18T05:34:08.620Z,59.84
2023-04-18T05:36:36.208Z,59.32
2023-04-18T05:39:06.087Z,58.94
2023-04-18T05:41:33.440Z,58.87
2023-04-18T05:44:16.886Z,59.63
2023-04-18T05:46:44.456Z,58.49
2023-04-18T05:49:12.337Z,58.07
2023-04-18T05:51:39.712Z,58.55
2023-04-18T05:54:07.058Z,60.41
2023-04-18T05:56:34.690Z,59.37
2023-04-18T05:59:02.045Z,59.46
2023-04-18T06:01:29.401Z,61.48
2023-04-18T06:03:57.496Z,59.91
2023-04-18T06:06:26.366Z,60.95
2023-04-18T06:08:54.353Z,61.20
2023-04-18T06:11:22.677Z,60.82
2023-04-18T06:13:50.103Z,60.05
2023-04-18T06:16:17.488Z,61.79
2023-04-18T06:18:45.262Z,61.44
2023-04-18T06:21:13.239Z,62.16
2023-04-18T06:23:40.660Z,62.31
2023-04-18T06:26:09.247Z,61.10
2023-04-18T06:28:36.583Z,61.98
2023-04-18T06:31:03.982Z,62.20
2023-04-18T06:33:31.620Z,60.79
2023-04-18T06:35:59.172Z,59.64
2023-04-18T06:38:26.613Z,59.24
2023-04-18T06:40:54.268Z,58.28
2023-04-18T06:43:22.119Z,55.71
2023-04-18T06:45:49.929Z,54.64
2023-04-18T06:48:17.626Z,57.14
2023-04-18T06:50:44.934Z,55.61
2023-04-18T06:53:12.379Z,54.35
2023-04-18T06:55:40.927Z,56.21
2023-04-18T06:58:09.684Z,58.44
2023-04-18T07:00:37.064Z,57.54
2023-04-18T07:03:11.355Z,57.07
2023-04-18T07:05:42.048Z,57.11
2023-04-18T07:08:09.663Z,55.46
2023-04-18T07:10:37.093Z,53.56
2023-04-18T07:13:04.683Z,54.96
2023-04-18T07:15:34.103Z,53.64
2023-04-18T07:18:01.475Z,49.83
2023-04-18T07:20:28.959Z,51.75
2023-04-18T07:22:56.632Z,49.74
2023-04-18T07:25:24.122Z,52.25
2023-04-18T07:27:51.494Z,51.12
2023-04-18T07:30:19.133Z,50.74
2023-04-18T07:32:47.536Z,51.87
2023-04-18T07:35:15.349Z,54.10
2023-04-18T07:37:42.979Z,52.84
2023-04-18T07:40:10.802Z,51.42
2023-04-18T07:42:38.252Z,52.28
2023-04-18T07:45:06.462Z,53.64
2023-04-18T07:47:33.954Z,50.01
2023-04-18T07:50:01.461Z,49.43
2023-04-18T07:52:29.790Z,52.35
2023-04-18T07:54:57.495Z,49.56
2023-04-18T07:57:24.895Z,49.34
2023-04-18T07:59:53.926Z,50.08
2023-04-18T08:04:50.081Z,50.37
2023-04-18T08:07:17.619Z,48.53
2023-04-18T08:09:44.952Z,47.70
2023-04-18T08:12:12.594Z,48.51
2023-04-18T08:14:39.949Z,46.94
2023-04-18T08:17:07.424Z,45.75
2023-04-18T08:19:35.090Z,49.47
2023-04-18T08:22:10.266Z,46.47
2023-04-18T08:24:38.514Z,45.41
2023-04-18T08:27:06.181Z,46.93
2023-04-18T08:29:33.632Z,48.41
2023-04-18T08:32:01.360Z,48.44
2023-04-18T08:34:29.365Z,46.04
2023-04-18T08:36:56.742Z,46.59
2023-04-18T08:39:25.318Z,45.53
2023-04-18T08:41:59.917Z,47.11
2023-04-18T08:44:28.034Z,45.59
2023-04-18T08:46:56.031Z,45.77
2023-04-18T08:49:24.867Z,45.03
2023-04-18T08:51:53.028Z,47.76
2023-04-18T08:54:20.876Z,48.05
2023-04-18T08:56:52.684Z,48.57
2023-04-18T08:59:20.520Z,44.31
2023-04-18T09:01:59.496Z,43.41
2023-04-18T09:04:37.110Z,41.62
2023-04-18T09:07:06.356Z,41.87
2023-04-18T09:09:52.961Z,39.02
2023-04-18T09:12:22.593Z,40.10
2023-04-18T09:14:54.231Z,36.73
2023-04-18T09:17:31.695Z,37.88
2023-04-18T09:19:59.887Z,37.14
2023-04-18T09:22:30.328Z,33.07
2023-04-18T09:24:58.302Z,30.72
2023-04-18T09:27:26.122Z,33.92
2023-04-18T09:29:55.271Z,31.83
2023-04-18T09:32:26.815Z,33.29
2023-04-18T09:35:01.379Z,33.18
2023-04-18T09:37:30.287Z,32.24
2023-04-18T09:39:57.940Z,33.82
2023-04-18T09:42:28.239Z,37.82
2023-04-18T09:45:00.492Z,35.81
2023-04-18T09:47:28.327Z,38.23
2023-04-18T09:49:55.896Z,41.08
2023-04-18T09:52:24.906Z,43.20
2023-04-18T09:54:58.314Z,43.39
2023-04-18T09:57:29.657Z,44.08
2023-04-18T10:00:17.850Z,40.93
2023-04-18T10:02:58.572Z,39.70
2023-04-18T10:05:27.583Z,40.08
2023-04-18T10:07:55.794Z,39.88
2023-04-18T10:10:23.632Z,38.74
2023-04-18T10:12:52.839Z,39.62
2023-04-18T10:15:21.318Z,40.81
2023-04-18T10:18:04.193Z,40.46
2023-04-18T10:20:33.652Z,38.73
2023-04-18T10:23:01.258Z,39.97
2023-04-18T10:25:34.757Z,38.71
2023-04-18T10:28:02.698Z,38.38
2023-04-18T10:30:41.821Z,38.59
2023-04-18T10:36:08.016Z,40.95
2023-04-18T10:38:49.621Z,40.70
2023-04-18T10:41:16.853Z,41.32
2023-04-18T10:44:15.990Z,39.03
2023-04-18T10:46:52.977Z,39.97
2023-04-18T10:49:26.803Z,39.31
2023-04-18T10:51:58.387Z,38.72
2023-04-18T10:54:30.712Z,40.19
2023-04-18T10:56:59.201Z,38.25
2023-04-18T10:59:27.017Z,39.66
2023-04-18T11:01:59.699Z,37.31
2023-04-18T11:04:28.336Z,38.28
2023-04-18T11:06:57.465Z,39.35
2023-04-18T11:09:24.877Z,39.53
2023-04-18T11:12:08.949Z,38.92
2023-04-18T11:14:42.704Z,39.76
2023-04-18T11:17:23.610Z,40.28
2023-04-18T11:19:54.848Z,41.86
2023-04-18T11:22:22.497Z,41.07
2023-04-18T11:24:49.843Z,41.11
2023-04-18T11:27:17.218Z,40.09
2023-04-18T11:29:44.892Z,41.13
2023-04-18T11:32:12.509Z,40.34
2023-04-18T11:34:39.962Z,39.72
2023-04-18T11:37:08.324Z,38.33
2023-04-18T11:39:42.973Z,39.42
2023-04-18T11:42:10.650Z,38.22
2023-04-18T11:44:39.969Z,37.04
2023-04-18T11:47:22.630Z,37.38
2023-04-18T11:49:58.968Z,41.71
2023-04-18T11:52:30.758Z,40.94
2023-04-18T11:55:13.475Z,42.09
2023-04-18T11:57:41.070Z,42.47
2023-04-18T12:00:10.130Z,43.45
2023-04-18T12:02:42.733Z,41.72
2023-04-18T12:05:12.018Z,40.52
2023-04-18T12:07:45.852Z,41.01
2023-04-18T12:10:22.208Z,38.11
2023-04-18T12:12:50.749Z,37.92
2023-04-18T12:15:18.596Z,38.36
2023-04-18T12:17:48.414Z,38.03
2023-04-18T12:20:16.135Z,36.72
2023-04-18T12:22:51.068Z,38.18
2023-04-18T12:25:26.712Z,40.18
2023-04-18T12:27:59.180Z,39.43
2023-04-18T12:30:30.994Z,38.73
2023-04-18T12:32:59.966Z,39.15
2023-04-18T12:35:27.879Z,39.84
2023-04-18T12:37:56.162Z,39.91
2023-04-18T12:40:24.058Z,38.58
2023-04-18T12:42:51.780Z,39.73
2023-04-18T12:45:19.941Z,39.78
2023-04-18T12:47:48.234Z,39.58
2023-04-18T12:50:17.816Z,37.72
2023-04-18T12:52:45.426Z,37.24
2023-04-18T12:55:12.839Z,36.62
2023-04-18T12:57:41.570Z,36.90
2023-04-18T13:00:12.848Z,36.06
2023-04-18T13:02:42.191Z,35.03
2023-04-18T13:05:10.876Z,36.22
2023-04-18T13:07:40.440Z,36.30
2023-04-18T13:10:09.099Z,35.10
2023-04-18T13:12:36.548Z,32.99
2023-04-18T13:15:05.229Z,33.91
2023-04-18T13:17:33.757Z,35.41
2023-04-18T13:20:01.557Z,36.54
2023-04-18T13:22:30.885Z,37.26
2023-04-18T13:24:58.502Z,37.16
2023-04-18T13:27:25.889Z,36.88
2023-04-18T13:29:53.301Z,35.90
2023-04-18T13:32:21.059Z,36.32
2023-04-18T13:34:48.620Z,34.88
2023-04-18T13:37:16.046Z,34.18
2023-04-18T13:39:43.772Z,33.84
2023-04-18T13:42:11.284Z,33.25
2023-04-18T13:44:38.634Z,33.42
2023-04-18T13:47:06.626Z,35.12
2023-04-18T13:49:34.283Z,34.02
2023-04-18T13:52:01.817Z,36.44
2023-04-18T13:54:30.667Z,33.53
2023-04-18T13:56:59.302Z,33.16
2023-04-18T13:59:26.999Z,34.82
2023-04-18T14:01:54.826Z,31.81
2023-04-18T14:04:22.857Z,33.23
2023-04-18T14:06:50.663Z,31.94
2023-04-18T14:09:18.064Z,32.01
2023-04-18T14:11:46.400Z,34.63
2023-04-18T14:14:13.776Z,32.34
2023-04-18T14:16:41.182Z,33.34
2023-04-18T14:19:08.809Z,33.07
2023-04-18T14:21:36.210Z,32.97
2023-04-18T14:24:05.515Z,33.80
2023-04-18T14:26:33.125Z,32.37
2023-04-18T14:29:00.652Z,32.45
2023-04-18T14:31:28.212Z,33.41
2023-04-18T14:33:55.900Z,32.97
2023-04-18T14:36:23.228Z,31.85
2023-04-18T14:38:50.624Z,32.00
2023-04-18T14:41:18.469Z,31.64
2023-04-18T14:43:45.922Z,31.39
2023-04-18T14:46:13.901Z,31.36
2023-04-18T14:48:41.635Z,29.56
2023-04-18T14:51:09.060Z,30.80
2023-04-18T14:53:36.531Z,30.57
2023-04-18T14:56:04.213Z,31.43
2023-04-18T14:58:31.776Z,32.41
2023-04-18T15:00:59.153Z,32.91
2023-04-18T15:03:26.871Z,33.27
2023-04-18T15:05:55.066Z,33.18
2023-04-18T15:08:22.464Z,28.33
2023-04-18T15:10:50.090Z,31.93
2023-04-18T15:13:17.680Z,29.76
2023-04-18T15:15:54.008Z,27.79
2023-04-18T15:18:21.743Z,30.34
2023-04-18T15:20:49.168Z,28.01
2023-04-18T15:23:16.578Z,33.58
2023-04-18T15:25:44.462Z,30.57
2023-04-18T15:28:13.468Z,32.03
2023-04-18T15:30:40.894Z,31.94
2023-04-18T15:33:08.631Z,32.79
2023-04-18T15:35:36.152Z,30.52
2023-04-18T15:38:03.515Z,30.08
2023-04-18T15:40:32.915Z,31.69
2023-04-18T15:43:00.551Z,28.69
2023-04-18T15:45:27.873Z,27.09
2023-04-18T15:47:55.764Z,28.03
2023-04-18T15:50:23.580Z,30.59
2023-04-18T15:52:51.111Z,32.71
2023-04-18T15:55:18.712Z,31.90
2023-04-18T15:57:46.361Z,31.57
2023-04-18T16:00:16.278Z,31.80
2023-04-18T16:02:44.464Z,32.33
2023-04-18T16:05:15.410Z,31.17
2023-04-18T16:07:42.957Z,31.13
2023-04-18T16:10:11.123Z,32.25
2023-04-18T16:12:39.253Z,33.99
2023-04-18T16:15:08.409Z,31.42
2023-04-18T16:17:39.288Z,32.03
2023-04-18T16:20:08.479Z,36.80
2023-04-18T16:22:36.584Z,33.01
2023-04-18T16:25:04.681Z,31.42
2023-04-18T16:27:32.495Z,31.58
2023-04-18T16:30:00.231Z,34.05
2023-04-18T16:32:27.592Z,34.07
2023-04-18T16:34:55.139Z,32.22
2023-04-18T16:37:22.754Z,32.00
2023-04-18T16:39:50.211Z,31.12
2023-04-18T16:42:17.579Z,31.98
2023-04-18T16:44:45.975Z,33.44
2023-04-18T16:47:13.346Z,32.91
2023-04-18T16:49:41.310Z,32.75
2023-04-18T16:52:09.093Z,35.47
2023-04-18T16:54:36.496Z,33.52
2023-04-18T16:57:04.734Z,32.79
2023-04-18T16:59:32.377Z,32.26
2023-04-18T17:01:59.843Z,32.67
2023-04-18T17:04:27.338Z,32.62
2023-04-18T17:06:57.765Z,34.77
2023-04-18T17:09:25.225Z,33.12
2023-04-18T17:11:54.528Z,34.96
2023-04-18T17:14:22.148Z,35.61
2023-04-18T17:16:51.312Z,37.28
2023-04-18T17:19:20.263Z,34.30
2023-04-18T17:21:49.101Z,35.54
2023-04-18T17:24:18.648Z,36.79
2023-04-18T17:26:46.246Z,37.08
2023-04-18T17:29:14.049Z,35.13
2023-04-18T17:31:41.600Z,33.92
2023-04-18T17:34:09.128Z,35.13
2023-04-18T17:36:36.872Z,36.47
2023-04-18T17:39:07.384Z,38.08
2023-04-18T17:41:36.389Z,37.51
2023-04-18T17:44:04.200Z,38.12
2023-04-18T17:46:31.960Z,38.75
2023-04-18T17:48:59.402Z,38.85
2023-04-18T17:51:27.417Z,38.56
2023-04-18T17:53:55.110Z,40.30
2023-04-18T17:56:22.541Z,40.90
2023-04-18T17:58:50.175Z,40.87
2023-04-18T18:01:18.787Z,41.17
2023-04-18T18:03:47.166Z,40.84
2023-04-18T18:06:15.035Z,40.17
2023-04-18T18:08:42.638Z,39.57
2023-04-18T18:11:10.749Z,40.35
2023-04-18T18:13:39.029Z,41.64
2023-04-18T18:16:06.655Z,41.08
2023-04-18T18:18:35.256Z,40.86
2023-04-18T18:21:02.628Z,41.69
2023-04-18T18:23:29.975Z,42.75
2023-04-18T18:25:57.595Z,44.06
2023-04-18T18:28:24.925Z,43.77
2023-04-18T18:30:52.389Z,43.74
2023-04-18T18:33:20.097Z,43.86
2023-04-18T18:35:47.445Z,43.52
2023-04-18T18:38:14.904Z,43.45
2023-04-18T18:40:42.528Z,42.95
2023-04-18T18:43:09.846Z,42.75
2023-04-18T18:45:38.042Z,42.98
2023-04-18T18:48:07.224Z,42.21
2023-04-18T18:50:34.692Z,42.90
2023-04-18T18:53:02.069Z,44.38
2023-04-18T18:55:29.863Z,43.79
2023-04-18T18:57:57.236Z,44.41
2023-04-18T19:00:24.890Z,45.05
2023-04-18T19:02:52.949Z,45.42
2023-04-18T19:05:21.151Z,44.10
2023-04-18T19:07:49.151Z,45.12
2023-04-18T19:10:16.958Z,45.21
2023-04-18T19:12:44.337Z,45.97
2023-04-18T19:15:12.023Z,45.96
2023-04-18T19:17:39.695Z,46.16
2023-04-18T19:20:08.098Z,44.30
2023-04-18T19:22:35.527Z,45.18
2023-04-18T19:25:03.188Z,45.77
2023-04-18T19:27:30.952Z,46.00
2023-04-18T19:29:58.334Z,45.82
2023-04-18T19:32:26.193Z,46.09
2023-04-18T19:34:53.588Z,45.79
2023-04-18T19:37:21.122Z,45.75
2023-04-18T19:39:48.863Z,44.97
2023-04-18T19:42:16.245Z,44.77
2023-04-18T19:44:44.257Z,45.28
2023-04-18T19:47:11.880Z,46.00
2023-04-18T19:49:39.364Z,45.97
2023-04-18T19:52:06.783Z,46.18
2023-04-18T19:54:34.434Z,46.60
2023-04-18T19:57:02.439Z,46.75
2023-04-18T19:59:29.801Z,46.56
2023-04-18T20:02:00.554Z,46.69
2023-04-18T20:04:31.539Z,45.79
2023-04-18T20:06:59.206Z,45.37
2023-04-18T20:09:26.788Z,45.59
2023-04-18T20:11:54.446Z,46.00
2023-04-18T20:14:21.895Z,44.79
2023-04-18T20:16:49.710Z,45.11
2023-04-18T20:19:18.258Z,46.16
2023-04-18T20:21:45.775Z,46.06
2023-04-18T20:24:13.497Z,46.92
2023-04-18T20:26:41.155Z,47.33
2023-04-18T20:29:08.555Z,47.24
2023-04-18T20:31:37.681Z,45.79
2023-04-18T20:34:05.658Z,46.81
2023-04-18T20:36:34.352Z,46.88
2023-04-18T20:39:02.429Z,47.28
2023-04-18T20:41:32.020Z,43.18
2023-04-18T20:43:59.921Z,45.45
2023-04-18T20:46:27.301Z,43.38
2023-04-18T20:48:55.026Z,44.12
2023-04-18T20:51:22.354Z,45.06
2023-04-18T20:53:49.721Z,45.57
2023-04-18T20:56:17.298Z,46.53
2023-04-18T20:58:44.714Z,46.04
2023-04-18T21:01:12.310Z,45.94
2023-04-18T21:03:40.034Z,46.78
2023-04-18T21:06:07.437Z,45.80
2023-04-18T21:08:35.236Z,46.47
2023-04-18T21:11:02.922Z,45.93
2023-04-18T21:13:31.713Z,44.92
2023-04-18T21:15:59.122Z,45.33
2023-04-18T21:18:26.796Z,45.31
2023-04-18T21:20:54.150Z,45.86
2023-04-18T21:23:23.199Z,45.12
2023-04-18T21:25:50.841Z,44.31
2023-04-18T21:28:21.250Z,45.80
2023-04-18T21:30:48.601Z,42.28
2023-04-18T21:33:16.518Z,44.28
2023-04-18T21:35:43.867Z,41.13
2023-04-18T21:38:11.223Z,41.46
2023-04-18T21:40:38.835Z,43.41
2023-04-18T21:43:06.264Z,41.55
2023-04-18T21:45:33.777Z,42.35
2023-04-18T21:48:01.503Z,44.03
2023-04-18T21:50:28.894Z,44.10
2023-04-18T21:52:56.313Z,43.64
2023-04-18T21:55:23.942Z,44.00
2023-04-18T21:57:51.316Z,43.45
2023-04-18T22:00:19.106Z,43.84
2023-04-18T22:02:47.503Z,42.90
2023-04-18T22:05:16.121Z,44.60
2023-04-18T22:07:56.932Z,43.69
2023-04-18T22:10:25.941Z,41.89
2023-04-18T22:12:56.387Z,44.34
2023-04-18T22:15:24.245Z,45.34
2023-04-18T22:17:51.927Z,44.75
2023-04-18T22:20:19.300Z,44.81
2023-04-18T22:22:46.668Z,45.35
2023-04-18T22:25:14.297Z,44.90
2023-04-18T22:27:42.628Z,44.62
2023-04-18T22:30:10.353Z,45.60
2023-04-18T22:32:38.012Z,45.88
2023-04-18T22:35:06.633Z,44.81
2023-04-18T22:37:33.984Z,45.67
2023-04-18T22:40:01.650Z,46.23
2023-04-18T22:42:30.039Z,46.15
2023-04-18T22:44:57.788Z,46.08
2023-04-18T22:47:25.959Z,48.16
2023-04-18T22:49:53.725Z,48.16
2023-04-18T22:52:24.675Z,47.85
2023-04-18T22:54:52.505Z,47.27
2023-04-18T22:57:19.896Z,47.22
2023-04-18T22:59:47.207Z,47.34
2023-04-18T23:02:14.987Z,46.73
2023-04-18T23:04:42.536Z,46.91
2023-04-18T23:07:09.966Z,45.95
2023-04-18T23:09:37.599Z,46.17
2023-04-18T23:12:05.239Z,46.90
2023-04-18T23:14:32.571Z,46.94
2023-04-18T23:17:00.946Z,46.58
2023-04-18T23:19:28.287Z,46.65
2023-04-18T23:21:55.648Z,45.87
2023-04-18T23:24:23.294Z,45.72
2023-04-18T23:26:50.628Z,43.80
2023-04-18T23:29:17.994Z,44.90
2023-04-18T23:31:45.825Z,45.10
2023-04-18T23:34:13.442Z,44.42
2023-04-18T23:36:41.119Z,44.14
2023-04-18T23:39:08.756Z,44.97
2023-04-18T23:41:36.145Z,44.35
2023-04-18T23:44:03.502Z,44.80
2023-04-18T23:46:31.270Z,44.26
2023-04-18T23:48:58.642Z,45.17
2023-04-18T23:51:26.819Z,44.49
2023-04-18T23:53:54.398Z,43.46
2023-04-18T23:56:23.210Z,44.47
2023-04-18T23:58:50.636Z,44.95
